Date,TemperatureHighF,TemperatureAvgF,TemperatureLowF,DewpointHighF,DewpointAvgF,DewpointLowF,HumidityHigh,HumidityAvg,HumidityLow,PressureMaxIn,PressureMinIn,WindSpeedMaxMPH,WindSpeedAvgMPH,GustSpeedMaxMPH,PrecipitationSumIn
2013-1-1,27.9,22.4,17.2,-1.4,-5.9,-10.4,28,28,28,30.04,29.86,7,4,7,0.00
2013-1-2,26.4,22.3,15.4,-2.3,-5.9,-11.9,28,28,28,30.06,29.89,6,4,6,0.00
2013-1-3,28.2,24.4,19.0,-0.2,-4.1,-8.8,29,28,28,30.03,29.85,7,5,7,0.00
2013-1-4,35.6,28.7,22.6,5.6,-0.4,-5.6,28,28,28,30.05,29.77,12,8,12,0.00
2013-1-5,39.7,27.7,17.2,9.2,-1.2,-10.4,28,28,28,30.16,29.82,8,4,8,0.00
2013-1-6,35.2,32.6,29.8,5.8,3.7,1.6,33,29,28,30.17,29.71,7,4,7,0.04
2013-1-7,40.6,31.9,28.0,10.0,2.8,-0.9,31,29,28,30.26,29.95,11,6,11,0.00
2013-1-8,42.1,31.7,24.6,11.4,2.3,-3.9,29,28,28,30.14,29.96,7,4,7,0.00
2013-1-9,46.4,37.3,29.7,14.7,7.9,0.8,35,29,28,30.32,29.81,16,8,16,0.00
2013-1-10,47.5,33.1,22.8,15.9,3.9,-5.6,31,29,28,30.50,30.05,8,4,8,0.08
2013-1-11,49.5,42.1,34.5,20.0,12.5,4.7,35,30,28,30.06,29.58,10,6,10,0.43
2013-1-12,58.8,49.1,44.2,28.7,20.8,15.8,39,33,30,29.82,29.63,8,5,8,0.00
2013-1-13,82.0,36.2,26.8,51.7,9.9,0.8,38,33,31,29.92,29.64,10,4,10,0.24
2013-1-14,30.2,23.1,17.2,1.7,-3.9,-9.7,33,30,28,30.38,29.89,8,4,8,0.04
2013-1-15,38.8,23.2,13.6,8.5,-4.9,-13.5,30,28,28,30.35,30.02,6,1,6,0.04
2013-1-16,39.0,27.0,15.4,8.6,-1.7,-11.9,30,28,28,30.03,29.59,11,5,11,0.00
2013-1-17,37.8,26.8,15.4,7.4,-1.8,-11.9,29,28,28,30.21,29.78,10,5,10,0.00
2013-1-18,34.2,24.0,13.6,4.4,-4.4,-13.5,29,28,28,30.33,29.74,12,6,12,0.00
2013-1-19,43.7,38.7,34.2,12.7,8.6,4.4,31,28,28,29.76,29.33,12,8,12,0.00
2013-1-20,40.6,21.2,13.6,12.2,-6.8,-13.5,31,28,28,30.03,29.33,16,8,16,0.00
2013-1-21,25.9,12.5,2.8,-2.8,-14.5,-23.0,28,28,28,30.02,29.80,10,5,10,0.00
2013-1-22,4.5,1.0,-2.6,-21.5,-24.6,-27.7,28,28,28,30.04,29.92,7,5,7,0.00
2013-1-25,23.4,19.5,17.2,-5.0,-8.4,-10.4,28,28,28,29.91,29.83,6,3,6,0.00
2013-1-26,35.6,21.6,11.8,5.6,-6.6,-15.1,28,28,28,30.33,29.86,6,3,6,0.04
2013-1-27,32.7,21.9,8.2,3.1,-6.3,-18.2,28,28,28,30.36,29.95,8,4,8,0.00
2013-1-28,40.5,34.6,28.2,9.9,4.9,-0.8,29,28,28,29.99,29.64,8,4,8,0.16
2013-1-29,54.3,43.1,32.2,27.8,13.9,2.7,39,30,28,29.88,29.22,10,5,10,6.54
2013-1-30,54.7,45.2,30.9,27.5,19.1,5.1,38,35,33,29.24,28.88,11,5,11,0.63
2013-1-31,30.9,22.0,15.4,5.1,-5.8,-11.9,33,29,28,29.72,29.05,14,9,14,0.00
2013-2-1,20.7,15.9,10.0,-7.4,-11.6,-16.7,28,28,28,30.08,29.68,10,7,10,0.00
2013-2-2,26.1,14.7,2.8,-2.7,-12.6,-23.0,28,28,28,30.05,29.80,8,4,8,0.00
2013-2-3,26.1,13.9,2.8,-2.7,-13.3,-23.0,28,28,28,29.88,29.64,8,3,8,0.00
2013-2-4,28.0,18.8,10.0,-0.9,-9.0,-16.7,28,28,28,29.86,29.69,5,3,5,0.00
2013-2-5,36.0,20.7,6.4,6.0,-7.4,-19.8,28,28,28,29.80,29.56,8,4,8,0.00
2013-2-6,41.0,24.3,10.0,10.3,-4.2,-16.7,28,28,28,30.16,29.80,7,3,7,0.00
2013-2-7,39.2,30.6,24.6,8.8,1.3,-3.9,28,28,28,30.15,29.74,11,5,11,0.00
2013-2-8,27.7,23.9,15.4,-1.2,-4.5,-11.9,28,28,28,30.22,29.66,9,6,9,0.00
2013-2-9,42.8,20.7,1.0,11.9,-7.4,-24.5,28,28,28,30.34,30.12,6,2,6,0.08
2013-2-10,44.1,30.3,15.4,13.0,1.0,-11.9,28,28,28,30.15,29.46,12,5,12,0.08
2013-2-11,40.8,35.8,30.9,10.2,5.8,1.6,28,28,28,29.68,29.30,17,10,17,16.65
2013-2-12,31.1,29.3,26.8,1.7,0.2,-2.0,28,28,28,29.89,29.62,12,6,12,16.10
2013-2-13,26.8,26.8,26.8,-2.0,-2.0,-2.0,28,28,28,29.80,29.51,6,3,6,0.00
2013-2-14,35.2,27.3,26.8,5.3,-1.6,-2.0,28,28,28,29.61,29.45,13,4,13,0.00
2013-3-19,23.4,23.4,23.4,-5.0,-5.0,-5.2,28,28,28,29.75,29.75,8,8,8,0.00
2013-3-20,34.5,25.5,15.4,4.7,-3.2,-11.9,28,28,28,29.79,29.70,11,7,11,0.00
2013-3-21,31.6,21.1,15.4,2.2,-7.0,-11.9,28,28,28,29.77,29.67,7,5,7,0.00
2013-3-29,52.0,43.1,33.4,26.3,17.2,8.0,37,35,33,30.13,30.07,6,2,6,0.00
2013-3-30,63.9,45.9,24.6,31.2,16.6,-3.2,34,31,28,30.13,29.83,10,4,10,0.00
2013-3-31,59.4,51.1,39.2,31.7,23.2,10.3,36,33,29,29.83,29.44,10,7,10,0.00
2013-4-1,40.8,31.6,24.6,10.3,2.5,-3.9,31,28,28,29.99,29.53,12,6,12,0.00
2013-4-2,42.3,31.2,20.8,12.2,2.3,-7.2,32,29,28,30.13,29.93,10,4,10,0.00
2013-4-3,44.4,32.5,20.8,13.1,2.9,-7.2,28,28,28,30.33,30.08,9,4,9,0.00
2013-4-4,60.8,43.3,27.3,27.5,12.5,-1.6,30,28,28,30.24,29.78,11,5,11,0.00
2013-4-5,50.2,40.6,31.5,18.3,10.2,1.9,30,28,28,30.11,29.78,13,5,13,0.00
2013-4-6,50.7,39.4,29.7,18.6,8.9,0.5,28,28,28,30.13,29.57,13,7,13,0.00
2013-4-7,54.0,46.4,33.8,21.6,15.1,4.1,31,28,28,29.93,29.37,12,7,12,0.00
2013-4-8,55.0,41.0,29.1,24.1,10.8,0.0,31,29,28,29.95,29.50,13,5,13,0.00
2013-4-9,55.0,43.3,38.8,24.9,14.6,9.2,35,31,28,29.99,29.77,8,5,8,0.00
2013-4-10,39.7,38.2,36.1,14.3,11.1,8.5,35,32,31,30.01,29.75,14,6,14,0.00
2013-4-11,34.5,34.1,33.6,4.7,4.3,3.9,28,28,28,29.69,29.52,12,8,12,0.00
2013-4-12,46.4,37.4,32.4,15.0,7.9,2.8,34,29,28,29.63,29.36,9,4,9,0.00
2013-4-13,44.2,38.1,34.7,15.9,10.4,4.9,37,31,28,29.87,29.57,14,6,14,0.00
2013-4-14,52.7,40.9,30.6,22.9,11.9,2.0,33,30,28,30.01,29.81,10,4,10,0.00
2013-4-15,69.1,54.8,39.2,36.4,24.7,11.0,37,31,29,29.83,29.68,12,7,12,0.00
2013-4-16,62.6,51.4,44.8,37.4,24.7,18.1,41,35,34,30.01,29.72,9,2,9,0.00
2013-4-18,78.6,68.7,55.4,52.3,42.3,33.3,43,38,37,29.44,29.35,12,11,12,0.00
2013-4-19,33.6,33.5,33.3,8.2,8.1,7.5,34,34,34,29.62,29.56,17,8,17,0.00
2013-4-20,33.6,30.8,27.5,8.2,4.5,0.8,34,32,30,29.94,29.56,12,8,12,0.00
2013-4-21,58.6,48.1,37.0,25.6,16.6,7.1,29,28,28,30.51,30.34,10,7,10,0.00
2013-4-22,71.4,50.6,31.1,36.6,19.1,1.7,30,29,28,30.38,30.04,9,5,9,0.00
2013-4-23,70.5,55.4,39.6,36.7,24.7,9.2,37,30,28,30.10,29.67,11,6,11,0.00
2013-4-24,50.7,38.6,33.8,25.4,11.7,6.5,37,33,31,29.99,29.65,7,5,7,0.00
2013-4-25,52.7,41.2,33.1,22.1,11.9,5.1,34,30,28,30.22,29.91,10,6,10,0.00
2013-4-26,66.4,48.9,30.2,32.5,18.1,1.1,31,29,28,30.38,30.17,10,5,10,0.00
2013-4-27,78.4,58.9,38.7,43.4,26.7,9.1,31,29,28,30.26,29.95,9,5,9,0.00
2013-4-28,64.8,52.9,43.7,35.0,23.9,12.7,39,32,28,29.98,29.69,10,4,10,0.00
2013-4-29,75.9,60.6,51.6,48.5,35.0,26.3,41,38,37,29.85,29.69,6,3,6,0.00
2013-4-30,73.6,62.1,53.8,50.3,37.2,27.4,46,40,36,29.96,29.76,13,6,13,0.00
2013-5-1,85.5,63.0,54.7,61.7,41.4,33.2,48,45,44,30.13,29.93,7,4,7,0.00
2013-5-3,82.8,73.2,61.7,56.7,49.5,40.7,47,43,40,30.03,29.92,12,7,12,0.00
2013-5-4,81.5,66.2,52.3,54.6,41.9,26.8,47,41,37,30.07,29.92,11,6,11,0.00
2013-5-5,80.4,63.4,45.5,54.2,38.4,21.3,44,40,37,30.05,29.89,13,5,13,0.00
2013-5-14,72.5,62.5,52.2,40.5,32.5,21.6,37,33,29,29.80,29.56,10,6,10,0.00
2013-5-15,84.0,68.7,52.9,58.1,42.0,25.9,42,38,35,29.68,29.39,7,4,7,0.00
2013-5-16,86.5,66.4,48.9,57.3,40.0,24.4,40,38,36,29.98,29.65,10,4,10,0.00
2013-5-17,71.2,56.8,43.9,43.3,30.7,17.9,45,37,34,30.11,29.93,9,5,9,0.00
2013-5-18,83.3,65.1,46.2,55.0,39.4,20.7,43,39,36,30.12,29.89,9,5,9,0.00
2013-5-19,95.5,73.2,51.1,69.5,48.0,22.6,46,41,36,29.96,29.72,6,3,6,0.00
2013-5-20,93.6,75.4,63.5,70.9,53.1,40.6,50,46,42,29.84,29.57,10,4,10,0.00
2013-5-21,89.8,73.8,62.4,68.0,54.0,42.5,55,50,48,29.72,29.53,8,4,8,0.00
2013-5-22,77.7,67.5,61.9,58.0,48.8,44.5,54,51,50,29.63,29.48,8,3,8,0.00
2013-5-23,61.9,49.8,41.9,44.7,32.8,24.9,55,52,49,30.13,29.55,12,5,12,0.00
2013-5-24,57.6,46.5,38.3,35.6,26.6,19.8,52,46,41,30.34,30.07,9,4,9,0.00
2013-5-25,69.8,52.4,35.1,43.7,28.8,12.6,46,40,36,30.36,30.18,10,3,10,0.00
2013-5-26,75.0,55.1,36.7,49.7,31.2,13.4,46,40,37,30.31,30.12,8,3,8,0.00
2013-5-27,78.3,55.5,38.3,49.1,30.2,14.9,41,38,35,30.22,29.90,8,4,8,0.00
2013-5-28,72.5,59.5,50.7,50.9,36.8,26.0,52,43,38,29.93,29.63,6,4,6,0.00
2013-5-29,84.9,74.4,67.1,63.6,55.5,48.4,55,52,49,29.87,29.66,6,2,6,0.00
2013-5-30,92.1,74.5,62.2,73.6,56.7,44.4,55,54,51,29.98,29.82,8,4,8,0.00
2013-5-31,84.4,73.9,68.2,65.9,56.6,51.1,55,55,54,29.91,29.71,8,4,8,0.00
2013-6-1,83.3,71.4,63.9,65.4,54.0,47.4,55,54,46,29.75,29.54,8,3,8,0.00
2013-6-2,69.3,62.2,50.4,51.9,45.5,34.3,55,54,53,29.95,29.50,6,2,7,0.00
2013-6-3,71.8,55.9,40.8,52.7,37.5,23.1,54,50,47,30.05,29.90,6,1,6,0.00
2013-6-4,79.7,58.9,44.8,60.1,40.4,27.3,54,50,49,30.18,29.98,6,1,7,0.00
2013-6-5,78.6,60.9,51.8,54.2,39.6,31.3,49,45,42,30.17,29.92,8,2,8,0.00
2013-6-6,69.6,59.1,52.2,48.9,39.6,32.5,55,48,47,29.98,29.78,10,3,10,0.00
2013-6-7,58.8,58.7,58.6,39.2,39.1,39.0,48,48,48,29.83,29.82,5,4,8,0.00
2013-6-8,74.8,66.9,55.0,54.2,45.9,33.5,55,47,40,30.03,29.88,4,1,6,0.00
2013-6-9,83.5,66.0,52.9,63.8,46.6,32.8,55,50,45,30.08,29.88,8,3,8,0.00
2013-6-10,69.3,63.3,57.6,51.7,45.1,39.0,55,52,50,29.91,29.65,6,1,7,0.00
2013-6-11,84.7,70.1,60.6,66.8,53.1,43.9,55,55,54,29.85,29.68,4,1,5,0.00
2013-6-12,79.3,68.5,59.0,61.8,51.3,42.8,55,54,48,29.88,29.60,6,1,6,0.00
2013-6-13,80.1,68.6,60.4,61.9,51.5,44.2,55,54,50,29.90,29.52,10,2,10,0.00
2013-6-14,80.1,66.6,55.8,61.9,49.6,39.8,55,54,52,30.07,29.88,6,2,7,0.00
2013-6-15,82.8,67.2,54.0,64.9,50.2,37.2,55,54,53,30.04,29.81,4,1,4,0.00
2013-6-16,84.4,70.7,63.0,66.4,53.2,46.5,58,54,47,29.84,29.65,7,2,7,0.00
2013-6-17,89.2,70.4,58.1,71.0,53.2,42.0,55,55,51,29.90,29.70,8,2,9,0.00
2013-6-18,73.9,63.1,52.5,55.7,45.4,36.3,55,53,48,30.02,29.83,11,4,12,0.00
2013-7-5,93.0,79.4,72.5,60.0,47.5,42.7,36,33,29,30.05,29.31,4,2,4,0.00
2013-7-6,95.9,77.5,66.9,62.9,47.9,41.0,41,35,29,30.08,29.86,5,2,5,0.00
2013-7-7,81.0,73.1,68.4,48.2,43.7,38.1,41,35,28,30.00,29.81,4,2,4,0.00
2013-7-8,86.4,73.6,68.7,53.9,44.4,37.8,41,35,29,29.99,29.81,5,2,5,0.00
2013-7-9,93.4,77.1,68.9,57.8,46.7,38.0,41,34,28,29.94,29.71,8,2,8,0.00
2013-7-10,92.1,77.4,64.8,59.4,47.1,34.8,40,34,28,29.91,29.63,6,3,6,0.00
2013-7-11,64.8,62.5,60.4,37.1,36.2,33.1,40,38,31,29.92,29.81,1,0,0,0.00
2013-7-12,84.9,73.6,61.2,54.1,42.0,33.0,37,32,28,30.08,29.91,7,4,7,0.00
2013-7-13,87.3,69.9,54.1,54.5,40.7,29.7,42,35,28,30.12,29.96,7,3,7,0.00
2013-7-14,90.9,74.7,57.9,56.5,43.6,32.4,41,33,28,30.19,30.03,7,3,7,0.00
2013-7-15,99.5,80.1,67.8,61.5,47.4,38.4,39,32,28,30.24,30.05,6,2,6,0.00
2013-7-16,97.3,83.6,72.9,59.6,49.2,41.4,38,31,28,30.24,30.06,4,2,4,0.00
2013-7-17,98.8,84.4,72.1,60.4,50.1,41.8,37,31,28,30.19,29.97,5,2,5,0.00
2013-7-18,102.2,85.3,72.5,62.9,50.6,41.7,39,30,28,30.07,29.77,5,3,5,0.00
2013-7-19,99.7,85.5,75.6,61.6,49.7,41.4,36,29,28,29.83,29.50,8,4,8,0.00
2013-7-20,90.1,73.4,67.8,55.4,43.2,39.6,39,34,28,29.73,29.50,4,2,4,0.00
2013-7-24,71.4,58.5,55.2,43.1,30.2,28.4,38,34,31,29.89,29.75,6,1,2,0.00
2013-7-25,55.0,54.7,54.5,30.2,29.6,29.1,39,38,37,29.87,29.77,1,0,1,0.00
2013-7-28,73.8,63.4,56.1,44.2,35.4,28.9,38,35,32,29.77,29.57,7,3,7,0.00
2013-7-29,71.6,61.7,55.0,45.7,36.1,30.2,41,39,32,30.01,29.64,5,2,5,0.00
2013-7-30,85.8,67.2,51.4,57.8,40.5,27.3,41,38,33,30.06,29.84,6,2,6,0.00
2013-7-31,68.2,64.1,61.7,41.3,37.8,35.2,41,38,34,29.95,29.60,5,2,5,0.00
2013-8-1,83.5,66.1,58.1,54.9,39.8,31.9,40,38,32,29.75,29.57,6,2,6,0.00
2013-8-2,82.9,66.7,54.1,54.6,40.3,29.5,41,38,32,29.75,29.56,6,2,6,0.00
2013-8-3,84.0,68.4,55.2,54.2,41.0,31.5,41,37,32,29.88,29.61,6,2,6,0.00
2013-8-4,58.6,55.9,55.4,33.9,31.8,30.6,41,40,36,29.89,29.77,1,0,0,0.00
2013-10-26,74.5,48.8,42.3,47.0,23.7,17.2,38,37,36,29.81,29.02,0,0,0,0.00
2013-11-23,22.8,18.5,15.8,-2.0,-6.2,-9.7,37,33,28,30.51,30.27,7,4,7,0.04
2013-11-24,32.9,21.3,14.0,10.4,-1.8,-8.5,40,36,30,30.61,30.06,5,2,5,0.00
2013-11-25,35.4,27.6,19.4,12.9,4.5,-3.8,41,37,32,30.19,29.69,6,4,6,0.04
2013-11-26,34.7,32.7,30.4,12.2,9.2,5.9,41,37,33,29.86,29.59,4,2,4,0.00
2013-11-27,39.6,24.9,15.8,14.8,1.7,-8.3,39,36,31,29.98,29.62,8,3,8,0.00
2013-11-28,30.4,23.0,14.0,7.4,0.0,-7.0,40,36,32,30.23,29.86,3,1,3,0.00
2013-11-29,47.7,26.5,14.0,22.0,2.9,-9.9,39,36,32,30.48,30.13,3,1,3,0.00
2013-11-30,56.7,37.6,24.8,31.3,13.3,1.2,41,36,28,30.34,29.75,4,2,4,0.00
2013-12-1,44.1,37.7,33.4,20.7,13.7,7.7,41,37,29,29.85,29.67,4,2,4,0.00
2013-12-2,42.6,33.6,24.8,19.4,10.2,0.7,41,37,30,29.80,29.55,2,0,2,0.00
2013-12-3,36.9,32.3,21.2,14.2,7.8,-1.1,39,35,29,29.72,29.52,4,1,4,0.04
2013-12-4,56.7,45.4,36.3,31.8,20.5,11.4,42,37,30,29.69,29.28,5,2,5,0.12
2013-12-5,58.1,43.2,30.9,33.9,18.5,5.3,41,37,30,29.92,29.25,5,3,5,0.04
2013-12-6,30.9,26.2,19.4,10.0,3.0,-5.7,42,36,32,30.18,29.82,5,3,5,0.00
2013-12-7,40.5,21.4,12.2,15.4,-1.8,-11.8,40,36,30,30.42,30.09,5,2,5,0.00
2013-12-8,28.2,18.4,11.1,4.4,-4.5,-10.7,40,36,28,30.40,29.68,5,1,5,0.39
2013-12-9,33.1,28.1,19.4,9.3,4.1,-3.7,41,35,28,29.86,29.51,6,3,6,0.00
2013-12-10,31.3,18.0,8.6,8.0,-4.7,-14.1,39,36,30,29.95,29.58,5,3,5,0.00
2013-12-11,32.4,17.6,5.0,8.9,-4.2,-16.7,41,37,32,30.25,29.83,5,2,5,0.00
2013-12-12,30.0,15.5,3.4,7.3,-6.8,-16.8,41,36,28,30.25,29.79,5,2,5,0.00
2013-12-13,32.4,25.5,21.2,9.8,2.5,-4.8,41,36,31,30.10,29.78,4,2,4,0.00
2013-12-14,24.6,21.8,17.6,0.9,-1.8,-6.6,40,35,30,30.10,29.48,6,3,6,0.00
2013-12-15,30.0,19.9,10.4,5.2,-3.5,-14.8,41,35,28,29.80,29.45,5,2,5,0.28
2013-12-16,39.6,16.3,1.4,16.6,-6.2,-19.4,40,36,29,29.97,29.65,4,1,4,0.04
2013-12-17,32.2,23.8,14.0,7.4,0.3,-7.5,41,35,30,29.80,29.49,4,2,4,0.00
2013-12-18,42.1,28.3,21.2,17.0,4.6,-1.2,39,36,30,29.86,29.52,5,2,5,0.00
2013-12-19,48.0,32.4,21.2,22.1,7.9,-2.2,40,35,29,29.75,29.46,4,1,4,0.08
2013-12-20,35.8,34.4,32.9,12.3,9.2,5.2,40,35,29,29.68,29.42,3,1,3,0.24
2013-12-21,35.6,34.1,33.6,11.4,7.7,3.9,39,33,28,29.65,29.36,4,2,4,0.28
2013-12-26,37.9,26.4,23.0,11.9,2.8,-1.2,38,36,32,30.07,29.36,4,1,4,0.28
2013-12-27,33.4,28.9,24.8,8.8,5.9,2.3,41,37,32,30.11,29.86,2,1,2,0.00
2013-12-29,30.0,24.0,19.4,6.1,0.5,-2.7,39,35,31,29.81,29.47,6,4,6,0.00
2013-12-30,26.4,19.1,14.0,2.7,-3.7,-9.0,41,36,29,30.07,29.69,4,2,4,0.00
2013-12-31,26.4,18.1,12.2,4.8,-4.1,-10.0,41,37,30,30.11,29.68,5,2,5,0.00
2014-1-1,19.2,13.7,10.4,-2.3,-8.0,-13.2,41,37,31,30.22,29.98,4,2,4,0.00
2014-1-2,29.1,14.3,2.5,5.4,-8.4,-18.5,36,35,34,30.07,29.95,6,5,6,0.00